EGNM

Leeds Bradford Airport

Leeds, United Kingdom
METAR EGNM 181420Z 23010KT 190V260 9999 BKN021 19/14 Q1017
Observed Flight Rules
Aug-18 @ 14:20 UTC (32 minutes ago) Marginal Visual Flight Rules
Wind Visibility Clouds
230° at 10 knots 10,000+ meters
  • Broken at 2,100' AGL
Temperatures Readings
Current 19°C / 66°F
Dewpoint 14°C / 57°F
Humidity 73%
Altimeter 30.03" Hg
Pressure 1017 hPa
Elevation 208
METAR EGNM 181420Z 23010KT 190V260 9999 BKN021 19/14 Q1017
Observed Flight Rules
Aug-18 @ 14:20 UTC
(32 minutes ago)
MVFR
Wind Visibility
230° at 10 knots 10,000+ meters
Clouds
  • Broken at 2,100' AGL
Temperature Dewpoint
19°C / 66°F 14°C / 57°F
Humidity Altimeter Pressure
73% 30.03" Hg 1017 hPa